createdAt,value
2023-05-14T00:00:10.038Z,9.80
2023-05-14T00:02:38.068Z,9.70
2023-05-14T00:05:08.258Z,9.70
2023-05-14T00:07:36.419Z,10.47
2023-05-14T00:10:04.766Z,9.73
2023-05-14T00:12:32.995Z,8.93
2023-05-14T00:15:01.108Z,9.53
2023-05-14T00:17:29.208Z,9.60
2023-05-14T00:19:57.296Z,9.70
2023-05-14T00:22:26.731Z,9.93
2023-05-14T00:24:54.784Z,9.33
2023-05-14T00:27:22.778Z,9.60
2023-05-14T00:29:50.787Z,10.57
2023-05-14T00:32:18.975Z,10.03
2023-05-14T00:34:47.197Z,10.37
2023-05-14T00:37:15.150Z,9.07
2023-05-14T00:39:44.564Z,10.20
2023-05-14T00:42:12.498Z,9.53
2023-05-14T00:44:40.521Z,9.53
2023-05-14T00:47:08.762Z,9.83
2023-05-14T00:49:36.986Z,9.00
2023-05-14T00:52:05.532Z,9.47
2023-05-14T00:54:33.910Z,10.03
2023-05-14T00:57:03.293Z,9.53
2023-05-14T00:59:31.387Z,9.63
2023-05-14T01:01:59.374Z,9.57
2023-05-14T01:04:27.551Z,9.83
2023-05-14T01:07:01.137Z,9.20
2023-05-14T01:09:33.914Z,9.47
2023-05-14T01:12:09.948Z,9.10
2023-05-14T01:14:44.109Z,9.43
2023-05-14T01:17:13.316Z,9.73
2023-05-14T01:19:43.249Z,9.83
2023-05-14T01:22:13.315Z,9.53
2023-05-14T01:24:41.828Z,9.70
2023-05-14T01:27:14.554Z,10.00
2023-05-14T01:29:45.045Z,9.43
2023-05-14T01:32:13.690Z,9.43
2023-05-14T01:34:42.457Z,10.17
2023-05-14T01:37:13.117Z,9.00
2023-05-14T01:39:42.444Z,8.90
2023-05-14T01:42:53.312Z,9.73
2023-05-14T01:45:21.732Z,9.27
2023-05-14T01:47:49.905Z,9.00
2023-05-14T01:50:18.283Z,9.67
2023-05-14T01:53:29.643Z,9.60
2023-05-14T01:55:58.995Z,9.03
2023-05-14T01:58:27.067Z,9.40
2023-05-14T02:00:55.297Z,9.10
2023-05-14T02:03:23.246Z,9.33
2023-05-14T02:05:51.379Z,9.53
2023-05-14T02:08:19.533Z,9.77
2023-05-14T02:10:47.548Z,10.70
2023-05-14T02:13:16.913Z,10.00
2023-05-14T02:15:44.941Z,9.87
2023-05-14T02:18:13.565Z,11.17
2023-05-14T02:20:41.658Z,10.53
2023-05-14T02:23:09.713Z,9.83
2023-05-14T02:25:37.653Z,9.60
2023-05-14T02:28:06.253Z,9.93
2023-05-14T02:30:38.204Z,9.80
2023-05-14T02:33:06.469Z,9.47
2023-05-14T02:35:34.494Z,10.60
2023-05-14T02:38:02.494Z,10.30
2023-05-14T02:40:30.478Z,9.23
2023-05-14T02:42:58.548Z,10.60
2023-05-14T02:45:26.746Z,10.30
2023-05-14T02:47:56.159Z,9.50
2023-05-14T02:50:24.619Z,9.97
2023-05-14T02:52:52.800Z,9.33
2023-05-14T02:55:20.762Z,10.27
2023-05-14T02:57:48.732Z,10.80
2023-05-14T03:00:19.172Z,10.90
2023-05-14T03:02:47.703Z,10.67
2023-05-14T03:05:18.110Z,10.83
2023-05-14T03:07:46.082Z,10.80
2023-05-14T03:10:14.153Z,10.63
2023-05-14T03:12:42.108Z,10.90
2023-05-14T03:15:11.193Z,10.83
2023-05-14T03:17:39.196Z,11.50
2023-05-14T03:20:08.597Z,11.10
2023-05-14T03:22:38.425Z,11.80
2023-05-14T03:25:07.176Z,11.10
2023-05-14T03:27:36.689Z,11.43
2023-05-14T03:30:05.386Z,11.13
2023-05-14T03:32:33.583Z,11.03
2023-05-14T03:35:01.550Z,10.80
2023-05-14T03:37:29.489Z,11.27
2023-05-14T03:39:58.978Z,11.03
2023-05-14T03:42:27.121Z,10.47
2023-05-14T03:44:55.148Z,10.73
2023-05-14T03:47:23.174Z,10.83
2023-05-14T03:49:51.922Z,11.27
2023-05-14T03:52:26.735Z,11.33
2023-05-14T03:54:54.888Z,10.70
2023-05-14T03:57:24.296Z,11.20
2023-05-14T03:59:52.276Z,11.53
2023-05-14T04:02:20.788Z,10.87
2023-05-14T04:04:48.922Z,11.27
2023-05-14T04:07:20.192Z,11.07
2023-05-14T04:09:48.153Z,11.07
2023-05-14T04:12:16.130Z,10.40
2023-05-14T04:14:45.557Z,11.80
2023-05-14T04:17:13.548Z,11.03
2023-05-14T04:19:41.469Z,10.07
2023-05-14T04:22:09.651Z,10.83
2023-05-14T04:24:37.624Z,10.43
2023-05-14T04:27:06.276Z,10.87
2023-05-14T04:29:34.252Z,10.10
2023-05-14T04:32:04.818Z,10.43
2023-05-14T04:34:32.882Z,9.43
2023-05-14T04:37:01.087Z,10.13
2023-05-14T04:39:29.061Z,10.13
2023-05-14T04:41:57.084Z,9.63
2023-05-14T04:44:25.151Z,9.93
2023-05-14T04:46:53.108Z,10.13
2023-05-14T04:49:29.811Z,9.97
2023-05-14T04:51:57.828Z,9.50
2023-05-14T04:54:25.874Z,9.70
2023-05-14T04:56:55.806Z,9.97
2023-05-14T04:59:23.823Z,9.90
2023-05-14T05:01:52.145Z,10.20
2023-05-14T05:04:20.142Z,10.40
2023-05-14T05:06:49.444Z,10.47
2023-05-14T05:09:19.088Z,10.23
2023-05-14T05:11:47.030Z,10.10
2023-05-14T05:14:15.166Z,9.50
2023-05-14T05:16:43.232Z,10.00
2023-05-14T05:19:11.265Z,8.53
2023-05-14T05:21:40.847Z,8.57
2023-05-14T05:24:10.215Z,8.27
2023-05-14T05:26:38.195Z,8.17
2023-05-14T05:29:06.303Z,8.70
2023-05-14T05:31:34.514Z,7.73
2023-05-14T05:34:02.590Z,7.60
2023-05-14T05:36:30.971Z,7.57
2023-05-14T05:38:59.006Z,7.00
2023-05-14T05:41:30.093Z,7.67
2023-05-14T05:43:58.088Z,7.87
2023-05-14T05:46:26.101Z,8.17
2023-05-14T05:48:54.256Z,7.73
2023-05-14T05:51:22.267Z,7.83
2023-05-14T05:53:50.322Z,8.70
2023-05-14T05:56:21.104Z,8.67
2023-05-14T05:58:50.472Z,8.13
2023-05-14T06:01:18.694Z,8.50
2023-05-14T06:03:48.418Z,8.27
2023-05-14T06:06:16.834Z,7.80
2023-05-14T06:08:45.841Z,7.70
2023-05-14T06:11:13.869Z,8.87
2023-05-14T06:13:42.020Z,7.70
2023-05-14T06:16:11.426Z,8.10
2023-05-14T06:18:39.591Z,7.70
2023-05-14T06:21:07.568Z,8.30
2023-05-14T06:23:35.548Z,7.60
2023-05-14T06:26:03.506Z,7.47
2023-05-14T06:28:31.507Z,8.17
2023-05-14T06:30:59.545Z,7.90
2023-05-14T06:33:31.299Z,7.77
2023-05-14T06:35:59.625Z,7.60
2023-05-14T06:38:27.781Z,8.47
2023-05-14T06:40:55.882Z,8.43
2023-05-14T06:43:24.134Z,9.63
2023-05-14T06:45:53.036Z,8.70
2023-05-14T06:48:21.405Z,8.47
2023-05-14T06:50:50.935Z,9.97
2023-05-14T06:53:19.588Z,9.93
2023-05-14T06:55:48.823Z,11.40
2023-05-14T06:58:17.334Z,10.43
2023-05-14T07:00:45.279Z,10.73
2023-05-14T07:03:13.330Z,11.70
2023-05-14T07:05:42.181Z,12.83
2023-05-14T07:08:11.619Z,11.40
2023-05-14T07:10:40.046Z,12.07
2023-05-14T07:13:09.390Z,11.60
2023-05-14T07:15:37.395Z,10.90
2023-05-14T07:18:05.634Z,12.17
2023-05-14T07:20:33.646Z,12.23
2023-05-14T07:23:01.619Z,12.77
2023-05-14T07:25:30.920Z,12.00
2023-05-14T07:27:58.820Z,12.10
2023-05-14T07:30:26.876Z,11.97
2023-05-14T07:32:54.935Z,13.10
2023-05-14T07:35:23.455Z,12.57
2023-05-14T07:37:54.573Z,13.23
2023-05-14T07:40:22.912Z,13.27
2023-05-14T07:42:52.417Z,13.03
2023-05-14T07:45:20.383Z,11.90
2023-05-14T07:47:51.867Z,11.83
2023-05-14T07:50:20.280Z,11.37
2023-05-14T07:52:48.189Z,10.73
2023-05-14T07:55:16.138Z,11.60
2023-05-14T07:57:44.103Z,12.60
2023-05-14T08:00:15.966Z,11.00
2023-05-14T08:02:44.244Z,11.63
2023-05-14T08:05:12.613Z,10.90
2023-05-14T08:07:41.451Z,11.07
2023-05-14T08:10:10.658Z,10.43
2023-05-14T08:12:38.935Z,10.10
2023-05-14T08:15:09.470Z,9.97
2023-05-14T08:17:38.995Z,10.07
2023-05-14T08:20:09.053Z,10.27
2023-05-14T08:22:37.082Z,9.47
2023-05-14T08:25:06.391Z,9.07
2023-05-14T08:27:34.534Z,9.23
2023-05-14T08:30:02.536Z,8.03
2023-05-14T08:32:30.735Z,8.33
2023-05-14T08:35:00.160Z,8.60
2023-05-14T08:37:28.192Z,8.57
2023-05-14T08:39:56.224Z,7.90
2023-05-14T08:42:25.692Z,7.20
2023-05-14T08:44:57.135Z,7.17
2023-05-14T08:47:25.385Z,7.00
2023-05-14T08:49:56.193Z,6.97
2023-05-14T08:52:25.694Z,6.50
2023-05-14T08:54:54.663Z,6.73
2023-05-14T08:57:24.860Z,6.10
2023-05-14T08:59:52.930Z,5.20
2023-05-14T09:02:22.538Z,5.57
2023-05-14T09:04:52.227Z,6.50
2023-05-14T09:07:20.844Z,6.40
2023-05-14T09:09:50.404Z,5.73
2023-05-14T09:12:18.482Z,6.20
2023-05-14T09:14:46.583Z,5.83
2023-05-14T09:17:14.560Z,5.73
2023-05-14T09:19:43.654Z,5.53
2023-05-14T09:22:13.532Z,5.43
2023-05-14T09:24:41.800Z,5.87
2023-05-14T09:27:16.445Z,5.10
2023-05-14T09:29:44.485Z,5.10
2023-05-14T09:32:12.480Z,5.20
2023-05-14T09:34:41.432Z,5.57
2023-05-14T09:37:10.271Z,4.93
2023-05-14T09:39:39.309Z,5.17
2023-05-14T09:42:07.880Z,5.20
2023-05-14T09:44:38.118Z,4.43
2023-05-14T09:47:06.532Z,4.43
2023-05-14T09:49:35.221Z,4.20
2023-05-14T09:52:03.811Z,4.23
2023-05-14T09:54:33.214Z,3.47
2023-05-14T09:57:05.797Z,3.30
2023-05-14T09:59:35.020Z,2.60
2023-05-14T10:02:06.385Z,3.20
2023-05-14T10:04:35.252Z,3.20
2023-05-14T10:07:03.927Z,2.70
2023-05-14T10:09:33.212Z,2.67
2023-05-14T10:12:02.279Z,3.17
2023-05-14T10:14:35.030Z,2.93
2023-05-14T10:17:04.653Z,3.50
2023-05-14T10:19:34.703Z,3.60
2023-05-14T10:22:05.896Z,3.50
2023-05-14T10:24:34.279Z,3.67
2023-05-14T10:27:02.365Z,3.23
2023-05-14T10:29:34.865Z,3.50
2023-05-14T10:32:07.664Z,3.53
2023-05-14T10:34:38.426Z,3.50
2023-05-14T10:37:07.772Z,3.47
2023-05-14T10:39:46.327Z,3.90
2023-05-14T10:42:14.960Z,3.33
2023-05-14T10:44:49.266Z,3.40
2023-05-14T10:47:18.741Z,3.53
2023-05-14T10:49:49.185Z,3.10
2023-05-14T10:52:19.371Z,3.30
2023-05-14T10:54:51.434Z,3.20
2023-05-14T10:57:20.191Z,3.00
2023-05-14T10:59:49.196Z,3.20
2023-05-14T11:02:23.994Z,2.83
2023-05-14T11:04:57.316Z,2.67
2023-05-14T11:07:29.551Z,2.60
2023-05-14T11:10:01.652Z,2.70
2023-05-14T11:12:30.398Z,2.80
2023-05-14T11:14:59.322Z,2.60
2023-05-14T11:17:29.889Z,2.70
2023-05-14T11:19:58.625Z,2.90
2023-05-14T11:22:26.611Z,2.60
2023-05-14T11:24:54.598Z,2.70
2023-05-14T11:27:23.742Z,2.77
2023-05-14T11:29:51.915Z,3.00
2023-05-14T11:32:20.848Z,3.00
2023-05-14T11:34:51.250Z,2.77
2023-05-14T11:37:19.374Z,3.10
2023-05-14T11:39:48.946Z,3.20
2023-05-14T11:42:19.429Z,3.00
2023-05-14T11:44:49.014Z,3.03
2023-05-14T11:47:20.327Z,3.07
2023-05-14T11:49:50.559Z,2.77
2023-05-14T11:52:21.704Z,3.00
2023-05-14T11:54:50.993Z,3.07
2023-05-14T11:57:20.896Z,2.90
2023-05-14T11:59:49.549Z,3.20
2023-05-14T12:02:19.674Z,3.20
2023-05-14T12:04:53.124Z,3.67
2023-05-14T12:07:21.526Z,3.40
2023-05-14T12:09:50.894Z,2.67
2023-05-14T12:12:20.496Z,3.00
2023-05-14T12:14:52.632Z,2.90
2023-05-14T12:17:21.762Z,2.83
2023-05-14T12:19:52.508Z,2.70
2023-05-14T12:22:22.173Z,3.30
2023-05-14T12:24:54.534Z,3.10
2023-05-14T12:27:23.274Z,3.23
2023-05-14T12:29:53.436Z,2.90
2023-05-14T12:32:21.470Z,3.03
2023-05-14T12:34:49.402Z,2.90
2023-05-14T12:37:19.235Z,3.10
2023-05-14T12:39:47.284Z,3.03
2023-05-14T12:42:15.959Z,3.50
2023-05-14T12:44:43.941Z,3.10
2023-05-14T12:47:12.034Z,3.73
2023-05-14T12:49:40.049Z,3.50
2023-05-14T12:52:25.745Z,3.90
2023-05-14T12:54:57.408Z,4.17
2023-05-14T12:57:25.412Z,3.80
2023-05-14T12:59:53.360Z,3.93
2023-05-14T13:02:21.902Z,3.90
2023-05-14T13:04:49.866Z,4.50
2023-05-14T13:07:17.915Z,4.80
2023-05-14T13:09:45.837Z,4.47
2023-05-14T13:12:15.534Z,3.63
2023-05-14T13:14:43.552Z,3.60
2023-05-14T13:17:11.621Z,3.70
2023-05-14T13:19:39.552Z,3.50
2023-05-14T13:22:07.565Z,3.60
2023-05-14T13:24:36.790Z,3.77
2023-05-14T13:27:05.231Z,3.83
2023-05-14T13:29:34.613Z,4.30
2023-05-14T13:32:02.625Z,3.47
2023-05-14T13:34:30.567Z,3.50
2023-05-14T13:36:58.531Z,3.57
2023-05-14T13:39:27.205Z,3.07
2023-05-14T13:41:56.664Z,3.50
2023-05-14T13:44:24.822Z,4.07
2023-05-14T13:46:54.654Z,3.87
2023-05-14T13:49:22.917Z,4.17
2023-05-14T13:51:51.174Z,4.10
2023-05-14T13:54:19.872Z,3.67
2023-05-14T13:56:48.105Z,3.73
2023-05-14T13:59:16.311Z,4.13
2023-05-14T14:01:44.815Z,3.53
2023-05-14T14:04:16.406Z,3.90
2023-05-14T14:06:44.864Z,4.10
2023-05-14T14:09:13.778Z,3.80
2023-05-14T14:11:42.022Z,5.13
2023-05-14T14:14:10.023Z,5.00
2023-05-14T14:16:38.205Z,5.03
2023-05-14T14:19:06.609Z,4.43
2023-05-14T14:21:36.383Z,4.33
2023-05-14T14:24:04.817Z,4.47
2023-05-14T14:26:32.950Z,4.17
2023-05-14T14:29:01.287Z,4.70
2023-05-14T14:31:29.774Z,3.93
2023-05-14T14:33:58.010Z,4.20
2023-05-14T14:36:26.155Z,4.00
2023-05-14T14:38:55.583Z,3.80
2023-05-14T14:41:23.679Z,4.40
2023-05-14T14:43:51.581Z,4.40
2023-05-14T14:46:19.787Z,3.93
2023-05-14T14:48:47.924Z,3.17
2023-05-14T14:51:15.942Z,3.93
2023-05-14T14:53:44.021Z,3.53
2023-05-14T14:56:13.449Z,3.23
2023-05-14T14:58:42.418Z,3.37
2023-05-14T15:01:10.547Z,3.57
2023-05-14T15:03:38.776Z,3.37
2023-05-14T15:06:07.100Z,3.77
2023-05-14T15:08:35.432Z,3.77
2023-05-14T15:11:04.476Z,3.80
2023-05-14T15:13:33.875Z,3.73
2023-05-14T15:16:02.107Z,4.00
2023-05-14T15:18:31.264Z,3.37
2023-05-14T15:20:59.330Z,3.20
2023-05-14T15:23:27.335Z,3.53
2023-05-14T15:25:55.420Z,3.27
2023-05-14T15:28:23.734Z,3.23
2023-05-14T15:30:53.231Z,2.87
2023-05-14T15:33:21.430Z,2.60
2023-05-14T15:35:49.461Z,2.17
2023-05-14T15:38:17.516Z,2.13
2023-05-14T15:40:45.477Z,2.47
2023-05-14T15:43:13.563Z,2.23
2023-05-14T15:45:42.334Z,2.33
2023-05-14T15:48:11.939Z,2.27
2023-05-14T15:50:40.077Z,2.03
2023-05-14T15:53:08.033Z,2.57
2023-05-14T15:55:36.039Z,2.20
2023-05-14T15:58:04.056Z,2.20
2023-05-14T16:00:32.131Z,1.67
2023-05-14T16:03:00.215Z,2.10
2023-05-14T16:05:30.537Z,1.93
2023-05-14T16:07:58.554Z,2.03
2023-05-14T16:10:26.763Z,1.90
2023-05-14T16:12:55.005Z,2.10
2023-05-14T16:15:23.406Z,2.10
2023-05-14T16:17:51.531Z,2.33
2023-05-14T16:20:19.732Z,2.60
2023-05-14T16:22:49.194Z,2.37
2023-05-14T16:25:18.693Z,3.00
2023-05-14T16:27:47.577Z,2.30
2023-05-14T16:30:15.940Z,2.20
2023-05-14T16:32:46.657Z,2.17
2023-05-14T16:35:14.753Z,2.50
2023-05-14T16:37:42.724Z,1.70
2023-05-14T16:40:16.148Z,1.93
2023-05-14T16:42:46.072Z,1.67
2023-05-14T16:45:16.235Z,1.60
2023-05-14T16:47:44.370Z,1.73
2023-05-14T16:50:12.840Z,1.70
2023-05-14T16:52:40.904Z,1.53
2023-05-14T16:55:09.794Z,1.40
2023-05-14T16:57:39.204Z,1.43
2023-05-14T17:00:09.527Z,1.63
2023-05-14T17:02:37.720Z,1.57
2023-05-14T17:05:07.022Z,1.40
2023-05-14T17:07:35.070Z,1.50
2023-05-14T17:10:03.326Z,1.90
2023-05-14T17:12:31.409Z,1.80
2023-05-14T17:15:02.533Z,1.80
2023-05-14T17:17:32.690Z,1.50
2023-05-14T17:20:00.966Z,1.40
2023-05-14T17:22:29.108Z,1.70
2023-05-14T17:24:57.099Z,2.10
2023-05-14T17:27:26.115Z,1.70
2023-05-14T17:29:54.090Z,2.03
2023-05-14T17:32:23.581Z,1.60
2023-05-14T17:34:51.699Z,1.70
2023-05-14T17:37:19.760Z,1.80
2023-05-14T17:39:47.884Z,1.30
2023-05-14T17:42:16.634Z,1.80
2023-05-14T17:44:45.293Z,1.67
2023-05-14T17:47:13.684Z,1.50
2023-05-14T17:49:43.061Z,1.90
2023-05-14T17:52:11.052Z,2.20
2023-05-14T17:54:38.959Z,2.00
2023-05-14T17:57:07.303Z,1.83
2023-05-14T17:59:35.258Z,2.37
2023-05-14T18:02:05.543Z,1.90
2023-05-14T18:04:33.515Z,1.70
2023-05-14T18:07:03.197Z,1.97
2023-05-14T18:09:31.236Z,1.50
2023-05-14T18:11:59.166Z,1.40
2023-05-14T18:14:27.142Z,1.60
2023-05-14T18:16:55.892Z,1.80
2023-05-14T18:19:23.989Z,1.53
2023-05-14T18:21:52.016Z,1.70
2023-05-14T18:24:22.080Z,1.60
2023-05-14T18:26:50.699Z,1.90
2023-05-14T18:29:18.801Z,1.60
2023-05-14T18:31:48.691Z,1.77
2023-05-14T18:34:17.012Z,1.70
2023-05-14T18:36:45.097Z,1.60
2023-05-14T18:39:13.036Z,1.90
2023-05-14T18:41:42.413Z,1.97
2023-05-14T18:44:10.371Z,1.77
2023-05-14T18:46:38.429Z,1.97
2023-05-14T18:49:06.539Z,1.93
2023-05-14T18:51:34.502Z,2.10
2023-05-14T18:54:02.494Z,1.63
2023-05-14T18:56:30.640Z,1.67
2023-05-14T18:59:00.064Z,1.80
2023-05-14T19:01:28.199Z,2.37
2023-05-14T19:03:56.553Z,2.20
2023-05-14T19:06:24.816Z,2.20
2023-05-14T19:08:52.948Z,2.10
2023-05-14T19:11:21.937Z,1.87
2023-05-14T19:13:49.902Z,1.83
2023-05-14T19:16:19.307Z,1.70
2023-05-14T19:18:47.382Z,2.00
2023-05-14T19:21:15.986Z,1.73
2023-05-14T19:23:43.952Z,2.00
2023-05-14T19:26:11.976Z,1.80
2023-05-14T19:28:40.119Z,1.80
2023-05-14T19:31:08.270Z,1.80
2023-05-14T19:33:37.636Z,1.93
2023-05-14T19:36:06.513Z,1.67
2023-05-14T19:38:34.598Z,1.90
2023-05-14T19:41:02.600Z,1.80
2023-05-14T19:43:30.544Z,1.50
2023-05-14T19:46:01.310Z,1.53
2023-05-14T19:48:29.785Z,1.80
2023-05-14T19:50:59.152Z,1.87
2023-05-14T19:53:29.789Z,1.60
2023-05-14T19:55:57.965Z,1.60
2023-05-14T19:58:26.591Z,1.97
2023-05-14T20:00:57.245Z,1.93
2023-05-14T20:03:26.636Z,1.90
2023-05-14T20:05:55.205Z,1.60
2023-05-14T20:08:25.018Z,2.10
2023-05-14T20:10:53.286Z,1.80
2023-05-14T20:13:23.125Z,1.80
2023-05-14T20:15:52.590Z,1.83
2023-05-14T20:18:20.602Z,1.70
2023-05-14T20:20:49.015Z,1.80
2023-05-14T20:23:17.201Z,1.90
2023-05-14T20:25:46.566Z,1.37
2023-05-14T20:28:14.546Z,1.53
2023-05-14T20:30:42.661Z,1.50
2023-05-14T20:33:10.778Z,1.57
2023-05-14T20:35:40.772Z,1.50
2023-05-14T20:38:08.820Z,1.50
2023-05-14T20:40:36.944Z,1.60
2023-05-14T20:43:06.289Z,1.70
2023-05-14T20:45:34.392Z,1.80
2023-05-14T20:48:02.460Z,1.50
2023-05-14T20:50:30.515Z,1.50
2023-05-14T20:52:58.431Z,1.77
2023-05-14T20:55:26.670Z,1.60
2023-05-14T20:57:54.972Z,1.90
2023-05-14T21:00:24.587Z,1.60
2023-05-14T21:02:52.760Z,1.73
2023-05-14T21:05:20.900Z,1.60
2023-05-14T21:07:48.977Z,2.00
2023-05-14T21:10:17.105Z,1.80
2023-05-14T21:12:45.174Z,1.70
2023-05-14T21:15:13.407Z,1.87
2023-05-14T21:17:42.938Z,1.67
2023-05-14T21:20:13.454Z,2.10
2023-05-14T21:22:41.464Z,1.83
2023-05-14T21:25:10.184Z,2.00
2023-05-14T21:27:38.302Z,1.70
2023-05-14T21:30:07.678Z,1.90
2023-05-14T21:32:35.901Z,1.90
2023-05-14T21:35:06.327Z,2.10
2023-05-14T21:37:34.531Z,1.73
2023-05-14T21:40:02.616Z,1.80
2023-05-14T21:42:30.971Z,1.77
2023-05-14T21:44:59.097Z,2.30
2023-05-14T21:47:28.274Z,2.20
2023-05-14T21:49:56.414Z,1.90
2023-05-14T21:52:25.906Z,2.20
2023-05-14T21:54:54.994Z,2.17
2023-05-14T21:57:23.029Z,2.30
2023-05-14T21:59:50.954Z,2.13
2023-05-14T22:02:18.978Z,2.07
2023-05-14T22:04:46.998Z,2.43
2023-05-14T22:07:15.090Z,2.13
2023-05-14T22:09:44.458Z,2.40
2023-05-14T22:12:12.423Z,2.50
2023-05-14T22:14:40.399Z,2.40
2023-05-14T22:17:08.403Z,2.57
2023-05-14T22:19:36.436Z,2.50
2023-05-14T22:22:04.734Z,2.70
2023-05-14T22:24:32.724Z,2.60
2023-05-14T22:27:02.051Z,2.60
2023-05-14T22:29:30.005Z,2.37
2023-05-14T22:32:07.563Z,2.33
2023-05-14T22:34:35.542Z,2.50
2023-05-14T22:37:04.930Z,2.27
2023-05-14T22:39:32.969Z,2.40
2023-05-14T22:42:02.306Z,2.63
2023-05-14T22:44:30.277Z,2.30
2023-05-14T22:46:58.307Z,2.80
2023-05-14T22:49:26.317Z,2.43
2023-05-14T22:51:54.981Z,2.50
2023-05-14T22:54:22.891Z,2.40
2023-05-14T22:56:51.341Z,2.60
2023-05-14T22:59:22.731Z,2.50
2023-05-14T23:01:51.804Z,2.23
2023-05-14T23:04:19.877Z,2.13
2023-05-14T23:06:48.254Z,2.43
2023-05-14T23:09:16.237Z,2.37
2023-05-14T23:11:44.185Z,2.77
2023-05-14T23:14:12.096Z,2.60
2023-05-14T23:16:41.405Z,2.57
2023-05-14T23:19:09.614Z,2.60
2023-05-14T23:21:37.847Z,2.60
2023-05-14T23:24:06.299Z,2.17
2023-05-14T23:26:34.414Z,2.50
2023-05-14T23:29:02.349Z,2.60
2023-05-14T23:31:30.321Z,2.93
2023-05-14T23:33:59.734Z,2.40
2023-05-14T23:36:27.662Z,2.70
2023-05-14T23:38:55.662Z,2.77
2023-05-14T23:41:23.651Z,2.63
2023-05-14T23:43:51.602Z,2.50
2023-05-14T23:46:19.650Z,2.70
2023-05-14T23:48:47.612Z,2.63
2023-05-14T23:51:16.905Z,2.97
2023-05-14T23:53:44.881Z,2.73
2023-05-14T23:56:12.890Z,2.77
2023-05-14T23:58:40.870Z,2.90
